Time;durP1;ratioP1;P1;durP2;ratioP2;P2;SDS_P1;SDS_P2;PMS_P1;PMS_P2;Temp;Humidity;BMP_temperature;BMP_pressure;BME280_temperature;BME280_humidity;BME280_pressure;Samples;Min_cycle;Max_cycle;Signal;HPM_P1;HPM_P2
2020/12/05 00:01:08;;;;;;;31.83;20.05;;;;;;;2.49;74.39;99372.31;10094721;28;20066;-81
2020/12/05 00:06:04;;;;;;;29.55;18.58;;;;;;;2.44;74.64;99383.22;10083778;28;20521;-82
2020/12/05 00:11:00;;;;;;;29.00;19.15;;;;;;;2.29;75.37;99395.81;10093761;28;20522;-81
2020/12/05 00:15:56;;;;;;;32.60;19.20;;;;;;;2.17;75.37;99390.09;10097999;28;20050;-81
2020/12/05 00:20:52;;;;;;;31.75;19.17;;;;;;;2.21;74.65;99401.91;10088169;28;20047;-79
2020/12/05 00:25:48;;;;;;;33.88;18.95;;;;;;;2.07;75.70;99411.84;10101442;28;20050;-79
2020/12/05 00:30:44;;;;;;;31.60;20.55;;;;;;;2.11;75.28;99412.84;10086744;28;20126;-80
2020/12/05 00:35:41;;;;;;;33.50;20.15;;;;;;;1.88;76.08;99415.34;10088627;28;20102;-81
2020/12/05 00:40:37;;;;;;;31.83;18.75;;;;;;;1.89;75.62;99427.72;10093931;28;20131;-80
2020/12/05 00:45:33;;;;;;;33.70;19.95;;;;;;;1.84;75.53;99408.94;10089490;28;20047;-80
2020/12/05 00:50:29;;;;;;;30.42;18.25;;;;;;;1.91;75.13;99413.16;10083583;28;20142;-80
2020/12/05 00:55:25;;;;;;;30.42;18.02;;;;;;;1.78;75.47;99431.66;10115926;28;20475;-80
2020/12/05 01:00:22;;;;;;;31.58;18.98;;;;;;;1.82;75.58;99451.53;10094179;28;20040;-80
2020/12/05 01:05:18;;;;;;;33.25;19.35;;;;;;;1.73;75.86;99445.19;10093425;28;20057;-79
2020/12/05 01:10:14;;;;;;;37.53;21.73;;;;;;;1.70;76.56;99443.09;10099777;28;20059;-79
2020/12/05 01:15:10;;;;;;;38.10;21.08;;;;;;;1.78;76.37;99431.66;10106392;28;20067;-80
2020/12/05 01:20:07;;;;;;;35.97;21.60;;;;;;;1.73;76.63;99429.03;10107825;28;20043;-80
2020/12/05 01:25:04;;;;;;;36.00;21.60;;;;;;;1.83;76.41;99418.13;10120056;28;20066;-80
2020/12/05 01:30:00;;;;;;;34.60;19.73;;;;;;;1.70;76.57;99440.41;10111663;28;20066;-80
2020/12/05 01:35:00;;;;;;;38.65;21.63;;;;;;;1.71;76.70;99447.38;10103344;28;20074;-79
2020/12/05 01:39:56;;;;;;;35.67;21.35;;;;;;;1.77;76.32;99430.06;10117610;28;20513;-78
2020/12/05 01:44:52;;;;;;;37.85;22.80;;;;;;;1.72;77.12;99432.84;10099356;28;20043;-78
2020/12/05 01:49:48;;;;;;;37.38;23.17;;;;;;;1.83;76.97;99428.91;10106687;28;20039;-79
2020/12/05 01:54:44;;;;;;;37.38;21.10;;;;;;;1.83;76.75;99401.94;10102603;28;20483;-80
2020/12/05 01:59:40;;;;;;;34.45;21.25;;;;;;;1.88;76.59;99399.19;10113093;28;20145;-80
2020/12/05 02:04:47;;;;;;;38.05;23.00;;;;;;;1.86;76.40;99401.34;10119119;28;20053;-79
2020/12/05 02:09:49;;;;;;;39.08;21.63;;;;;;;1.84;76.57;99413.53;10101628;28;20053;-80
2020/12/05 02:14:49;;;;;;;44.10;25.90;;;;;;;1.72;77.00;99405.88;10090788;28;20546;-79
2020/12/05 02:19:51;;;;;;;41.03;23.35;;;;;;;1.64;77.53;99411.91;10109381;28;20526;-80
2020/12/05 02:24:49;;;;;;;44.65;26.00;;;;;;;1.74;77.52;99419.88;10098212;28;20077;-79
2020/12/05 02:29:45;;;;;;;43.72;24.25;;;;;;;1.85;76.80;99397.03;10107247;28;20077;-82
2020/12/05 02:34:41;;;;;;;40.92;23.95;;;;;;;1.83;77.00;99388.47;10113660;28;20053;-81
2020/12/05 02:39:42;;;;;;;41.97;23.08;;;;;;;1.73;77.16;99375.13;10118038;28;20491;-81
2020/12/05 02:44:49;;;;;;;42.42;24.00;;;;;;;1.68;77.82;99383.31;10109328;28;20078;-81
2020/12/05 02:49:47;;;;;;;44.25;24.30;;;;;;;1.60;78.05;99362.38;10093723;28;20051;-82
2020/12/05 02:54:44;;;;;;;38.65;22.75;;;;;;;1.71;77.53;99349.56;10106341;28;20057;-81
2020/12/05 02:59:41;;;;;;;42.83;24.63;;;;;;;1.61;78.10;99345.16;10101498;28;20519;-81
2020/12/05 03:04:37;;;;;;;45.70;25.55;;;;;;;1.48;78.11;99349.34;10096683;28;20048;-82
2020/12/05 03:09:33;;;;;;;43.78;24.85;;;;;;;1.70;77.92;99356.88;10092772;28;20070;-81
2020/12/05 03:14:29;;;;;;;41.58;23.27;;;;;;;1.76;77.56;99374.53;10103163;28;20058;-81
2020/12/05 03:19:26;;;;;;;44.58;26.15;;;;;;;1.83;77.32;99396.56;10101097;28;20142;-81
2020/12/05 03:24:23;;;;;;;41.40;25.50;;;;;;;1.79;77.81;99405.53;10093605;28;20042;-80
2020/12/05 03:29:19;;;;;;;40.22;24.73;;;;;;;1.66;78.03;99417.81;10122185;28;20525;-80
2020/12/05 03:34:16;;;;;;;45.85;25.67;;;;;;;1.58;78.42;99396.91;10096565;28;20047;-80
2020/12/05 03:39:12;;;;;;;46.28;26.10;;;;;;;1.63;78.49;99402.22;10101339;28;20101;-80
2020/12/05 03:44:09;;;;;;;45.60;26.15;;;;;;;1.67;77.90;99393.28;10094507;28;20046;-81
2020/12/05 03:49:06;;;;;;;44.97;25.77;;;;;;;1.66;77.99;99374.69;10093443;28;20776;-81
2020/12/05 03:54:02;;;;;;;45.13;25.20;;;;;;;1.70;77.58;99370.34;10100659;28;20038;-81
2020/12/05 03:58:58;;;;;;;44.83;25.77;;;;;;;1.78;77.67;99369.66;10093258;28;20039;-81
2020/12/05 04:03:54;;;;;;;42.45;25.42;;;;;;;1.93;77.85;99363.25;10086285;28;20051;-81
2020/12/05 04:08:50;;;;;;;42.45;24.42;;;;;;;2.01;77.58;99359.09;10107215;28;20074;-81
2020/12/05 04:13:46;;;;;;;44.20;27.58;;;;;;;2.01;77.11;99357.19;10096032;28;20038;-81
2020/12/05 04:18:43;;;;;;;52.55;26.42;;;;;;;2.03;77.25;99356.91;10095219;28;20073;-81
2020/12/05 04:23:39;;;;;;;40.80;26.15;;;;;;;2.02;77.28;99360.69;10110147;28;20058;-81
2020/12/05 04:28:36;;;;;;;47.55;27.58;;;;;;;1.88;77.87;99361.44;10096511;28;20050;-80
2020/12/05 04:33:32;;;;;;;47.80;26.17;;;;;;;1.92;77.77;99369.72;10085983;28;20141;-82
2020/12/05 04:38:29;;;;;;;50.58;27.13;;;;;;;2.02;77.09;99393.03;10089299;28;20538;-81
2020/12/05 04:43:25;;;;;;;46.78;26.77;;;;;;;2.07;77.78;99407.25;10087753;28;20487;-80
2020/12/05 04:48:22;;;;;;;42.35;25.75;;;;;;;1.94;77.63;99412.56;10087322;28;20068;-80
2020/12/05 04:53:21;;;;;;;43.63;24.65;;;;;;;2.09;77.23;99404.28;10086196;28;20051;-81
2020/12/05 04:58:20;;;;;;;47.72;27.27;;;;;;;2.10;77.16;99408.56;10095927;28;20055;-81
2020/12/05 05:03:19;;;;;;;49.90;28.52;;;;;;;2.08;77.21;99418.81;10092381;28;20077;-80
2020/12/05 05:08:15;;;;;;;47.60;26.15;;;;;;;2.31;77.17;99400.94;10091307;28;20050;-81
2020/12/05 05:13:21;;;;;;;44.83;27.35;;;;;;;2.39;76.94;99418.34;10102005;28;20407;-81
2020/12/05 05:18:23;;;;;;;42.65;27.02;;;;;;;2.18;77.13;99429.47;10100391;28;20078;-81
2020/12/05 05:23:20;;;;;;;44.30;26.35;;;;;;;2.33;76.72;99435.72;10100375;28;20430;-81
2020/12/05 05:28:21;;;;;;;45.40;26.48;;;;;;;2.44;76.10;99394.00;10094029;28;20089;-79
2020/12/05 05:33:17;;;;;;;44.55;26.75;;;;;;;2.41;76.41;99389.16;10102244;28;20469;-79
2020/12/05 05:38:23;;;;;;;52.53;29.13;;;;;;;2.20;77.74;99416.47;10093460;28;20085;-80
2020/12/05 05:43:20;;;;;;;42.67;26.23;;;;;;;2.45;76.74;99471.13;10096215;28;20500;-80
2020/12/05 05:48:16;;;;;;;44.42;25.83;;;;;;;2.47;76.17;99485.13;10093625;28;20046;-80
2020/12/05 05:53:21;;;;;;;45.20;25.42;;;;;;;2.41;77.11;99491.69;10090922;28;20054;-79
2020/12/05 05:58:21;;;;;;;47.55;26.77;;;;;;;2.49;76.81;99485.63;10110228;28;20522;-79
2020/12/05 06:03:28;;;;;;;45.42;26.75;;;;;;;2.49;76.33;99455.97;10110360;28;20557;-79
2020/12/05 06:08:27;;;;;;;48.72;27.23;;;;;;;2.39;76.88;99439.91;10096078;28;20146;-79
2020/12/05 06:13:26;;;;;;;46.08;27.13;;;;;;;2.39;76.35;99431.81;10101215;28;20073;-80
2020/12/05 06:18:23;;;;;;;44.55;26.85;;;;;;;2.40;77.17;99409.16;10106041;28;20047;-81
2020/12/05 06:23:34;;;;;;;42.30;25.52;;;;;;;2.34;76.72;99415.72;10085760;28;20046;-80
2020/12/05 06:28:31;;;;;;;43.65;25.40;;;;;;;2.46;76.28;99402.56;10117244;28;20062;-79
2020/12/05 06:33:46;;;;;;;44.38;26.00;;;;;;;2.44;76.63;99437.16;10098705;28;20059;-79
2020/12/05 06:38:43;;;;;;;48.70;29.45;;;;;;;2.50;76.65;99406.28;10100659;28;20077;-80
2020/12/05 06:50:05;;;;;;;44.53;25.50;;;;;;;2.39;75.71;99396.75;10158162;23;20506;-71
2020/12/05 06:55:03;;;;;;;48.35;28.65;;;;;;;2.36;76.10;99370.38;10145662;28;20051;-71
2020/12/05 07:00:18;;;;;;;46.42;26.10;;;;;;;2.27;76.86;99406.09;10143810;28;20054;-72
2020/12/05 07:05:21;;;;;;;45.00;27.77;;;;;;;2.22;76.23;99392.72;10119557;28;20113;-70
2020/12/05 07:10:18;;;;;;;51.60;28.23;;;;;;;2.06;78.01;99410.22;10129995;28;20100;-71
2020/12/05 07:15:28;;;;;;;50.17;28.55;;;;;;;2.16;77.89;99402.00;10140868;28;20078;-70
2020/12/05 07:20:25;;;;;;;47.95;27.95;;;;;;;2.21;77.37;99396.50;10137942;28;20191;-71
2020/12/05 07:25:21;;;;;;;46.80;27.58;;;;;;;2.16;77.75;99415.47;10126794;28;20631;-71
2020/12/05 07:30:17;;;;;;;47.70;27.38;;;;;;;2.22;77.92;99457.44;10129270;28;20140;-71
2020/12/05 07:35:18;;;;;;;51.38;29.55;;;;;;;2.16;77.81;99461.31;10141838;28;20053;-71
2020/12/05 07:40:13;;;;;;;46.50;26.75;;;;;;;2.20;78.05;99481.19;10136891;28;20077;-71
2020/12/05 07:45:13;;;;;;;51.30;29.60;;;;;;;2.28;77.23;99521.00;10134953;28;20046;-70
2020/12/05 07:50:10;;;;;;;51.35;28.48;;;;;;;2.33;77.54;99540.91;10104232;28;20054;-70
2020/12/05 07:55:12;;;;;;;40.15;24.05;;;;;;;2.44;77.20;99526.19;10143236;28;20046;-71
2020/12/05 08:00:09;;;;;;;46.05;28.92;;;;;;;2.49;76.55;99504.53;10139745;28;20093;-71
2020/12/05 08:05:10;;;;;;;44.08;27.00;;;;;;;2.57;76.79;99495.75;10140004;28;20046;-72
2020/12/05 08:10:11;;;;;;;47.90;27.17;;;;;;;2.60;76.74;99513.25;10139620;28;20058;-73
2020/12/05 08:15:07;;;;;;;45.13;27.70;;;;;;;2.61;76.05;99534.53;10114834;28;22035;-68
2020/12/05 08:20:04;;;;;;;46.78;28.58;;;;;;;2.63;76.06;99543.16;10135778;28;20042;-69
2020/12/05 08:25:00;;;;;;;46.33;28.80;;;;;;;2.61;76.40;99550.75;10132115;28;20042;-68
2020/12/05 08:29:57;;;;;;;48.60;28.60;;;;;;;2.62;76.08;99573.94;10128932;28;20112;-70
2020/12/05 08:35:02;;;;;;;46.30;27.92;;;;;;;2.65;76.46;99570.66;10136620;28;20046;-68
2020/12/05 08:39:59;;;;;;;49.30;29.73;;;;;;;2.67;76.35;99587.38;10127194;28;20085;-67
2020/12/05 08:44:55;;;;;;;47.03;28.33;;;;;;;2.77;75.99;99585.59;10127499;28;20483;-68
2020/12/05 08:49:51;;;;;;;46.38;27.40;;;;;;;2.71;76.03;99593.75;10131830;28;20049;-67
2020/12/05 08:54:52;;;;;;;44.90;27.48;;;;;;;2.61;76.55;99615.50;10133204;28;20070;-71
2020/12/05 08:59:58;;;;;;;51.45;27.90;;;;;;;2.54;77.38;99615.06;10129039;28;20046;-71
2020/12/05 09:05:00;;;;;;;48.17;28.15;;;;;;;2.69;75.94;99617.56;10127919;28;20051;-72
2020/12/05 09:09:56;;;;;;;47.80;28.75;;;;;;;2.59;76.26;99628.50;10131872;28;20050;-71
2020/12/05 09:14:57;;;;;;;46.42;28.15;;;;;;;2.55;76.24;99662.53;10137229;28;20110;-71
2020/12/05 09:20:17;;;;;;;46.15;28.15;;;;;;;2.56;76.39;99683.06;10140619;28;20097;-71
2020/12/05 09:25:43;;;;;;;49.70;28.95;;;;;;;2.59;76.29;99665.47;10131108;28;20124;-71
2020/12/05 09:30:40;;;;;;;50.38;28.20;;;;;;;2.64;76.32;99687.00;10113163;28;20093;-71
2020/12/05 09:35:39;;;;;;;50.42;28.45;;;;;;;2.56;75.90;99688.44;10150098;28;20054;-71
2020/12/05 09:40:35;;;;;;;51.75;29.65;;;;;;;2.58;76.58;99691.66;10138733;28;20046;-71
2020/12/05 09:45:33;;;;;;;47.78;28.20;;;;;;;2.56;75.95;99707.34;10122278;28;20051;-71
2020/12/05 09:50:29;;;;;;;48.35;27.98;;;;;;;2.53;76.21;99727.63;10124481;28;20054;-71
2020/12/05 09:55:26;;;;;;;49.20;28.85;;;;;;;2.42;77.19;99725.31;10138689;28;20117;-71
2020/12/05 10:00:23;;;;;;;51.95;30.85;;;;;;;2.60;76.52;99721.03;10137933;28;20518;-73
2020/12/05 10:05:19;;;;;;;51.30;28.55;;;;;;;2.53;76.14;99705.22;10141135;28;20077;-72
2020/12/05 10:10:16;;;;;;;53.00;29.52;;;;;;;2.71;76.34;99711.72;10140848;28;20528;-72
2020/12/05 10:15:14;;;;;;;47.05;28.15;;;;;;;2.76;75.45;99724.34;10139493;28;20053;-71
2020/12/05 10:20:10;;;;;;;51.78;29.80;;;;;;;2.78;76.09;99724.88;10145548;28;20082;-71
2020/12/05 10:25:06;;;;;;;46.67;27.88;;;;;;;2.82;75.68;99723.19;10139875;28;20510;-71
2020/12/05 10:30:02;;;;;;;46.00;29.30;;;;;;;2.84;75.56;99726.41;10132811;28;20050;-70
2020/12/05 10:34:58;;;;;;;45.03;26.48;;;;;;;2.87;75.80;99742.03;10120933;28;20050;-71
2020/12/05 10:39:58;;;;;;;47.85;28.73;;;;;;;2.87;75.81;99752.81;10137930;28;20055;-73
2020/12/05 10:44:54;;;;;;;43.95;26.25;;;;;;;2.77;75.92;99747.56;10124308;28;20590;-73
2020/12/05 10:49:50;;;;;;;45.63;27.25;;;;;;;2.85;76.10;99722.63;10117814;28;20064;-73
2020/12/05 10:54:46;;;;;;;41.78;26.98;;;;;;;2.99;75.79;99704.59;10141512;28;20035;-73
2020/12/05 10:59:42;;;;;;;45.80;28.42;;;;;;;2.91;75.70;99729.56;10138737;28;20061;-72
2020/12/05 11:04:38;;;;;;;40.85;25.58;;;;;;;3.02;75.53;99727.50;10119224;28;20053;-73
2020/12/05 11:09:34;;;;;;;49.35;28.13;;;;;;;3.15;75.36;99715.97;10130584;28;20050;-73
2020/12/05 11:14:30;;;;;;;43.50;25.25;;;;;;;3.30;75.34;99744.69;10126431;28;20046;-73
2020/12/05 11:19:27;;;;;;;42.38;25.25;;;;;;;3.43;75.46;99733.13;10131579;28;20050;-74
2020/12/05 11:24:24;;;;;;;45.40;27.17;;;;;;;3.34;74.45;99753.78;10134738;28;20049;-73
2020/12/05 11:29:21;;;;;;;46.33;27.63;;;;;;;3.34;74.73;99762.72;10118538;28;20053;-73
2020/12/05 11:34:17;;;;;;;44.95;26.52;;;;;;;3.46;75.19;99762.28;10139736;28;20092;-73
2020/12/05 11:39:13;;;;;;;46.03;27.90;;;;;;;3.46;75.62;99764.97;10143673;28;20046;-73
2020/12/05 11:44:09;;;;;;;44.05;25.65;;;;;;;3.49;74.83;99764.38;10138599;28;20568;-73
2020/12/05 11:49:05;;;;;;;41.97;26.23;;;;;;;3.58;75.27;99778.84;10135700;28;20132;-73
2020/12/05 11:54:04;;;;;;;39.58;24.88;;;;;;;3.56;75.50;99791.03;10134899;28;20038;-73
2020/12/05 11:59:03;;;;;;;39.80;23.75;;;;;;;3.59;75.06;99793.94;10124976;28;20089;-73
2020/12/05 12:03:59;;;;;;;35.17;22.00;;;;;;;3.58;75.27;99822.09;10126031;28;20434;-74
2020/12/05 12:08:55;;;;;;;38.72;23.35;;;;;;;3.53;76.11;99824.88;10135101;28;20054;-73
2020/12/05 12:13:51;;;;;;;42.47;24.30;;;;;;;3.52;75.71;99834.06;10086599;28;20055;-73
2020/12/05 12:18:48;;;;;;;40.72;24.65;;;;;;;3.73;76.04;99823.75;10088149;28;20047;-73
2020/12/05 12:23:44;;;;;;;33.88;22.92;;;;;;;3.77;75.89;99837.50;10068442;28;20464;-73
2020/12/05 12:28:40;;;;;;;34.75;21.25;;;;;;;3.86;75.53;99822.22;10098773;28;20154;-73
2020/12/05 12:33:38;;;;;;;35.45;21.83;;;;;;;3.81;75.95;99795.25;10086517;28;20043;-73
2020/12/05 12:38:33;;;;;;;34.35;21.80;;;;;;;3.95;76.36;99798.81;10097568;28;20125;-73
2020/12/05 12:43:29;;;;;;;32.67;20.23;;;;;;;3.82;76.74;99804.16;10082713;28;20054;-73
2020/12/05 12:53:21;;;;;;;34.85;21.83;;;;;;;4.05;76.54;99819.47;10088745;28;20145;-72
2020/12/05 12:58:34;;;;;;;31.05;20.30;;;;;;;4.12;76.30;99846.13;10092438;28;20047;-72
2020/12/05 13:03:30;;;;;;;28.95;19.27;;;;;;;4.12;76.41;99878.59;10089713;28;20039;-70
2020/12/05 13:08:26;;;;;;;30.88;19.20;;;;;;;4.18;76.52;99889.06;10096431;28;20046;-71
2020/12/05 13:13:23;;;;;;;30.92;19.33;;;;;;;4.26;76.79;99887.56;10095280;28;20053;-72
2020/12/05 13:18:19;;;;;;;26.48;17.38;;;;;;;4.33;77.16;99917.75;10098804;28;20074;-72
2020/12/05 13:23:16;;;;;;;28.50;17.80;;;;;;;4.26;77.09;99933.56;10103038;28;20653;-71
2020/12/05 13:28:12;;;;;;;23.20;15.77;;;;;;;4.30;77.75;99923.78;10095366;28;20043;-72
2020/12/05 13:33:08;;;;;;;29.85;16.70;;;;;;;4.30;77.92;99942.72;10096015;28;20407;-72
2020/12/05 13:38:04;;;;;;;28.42;18.33;;;;;;;4.35;77.48;99950.75;10079857;28;20050;-71
2020/12/05 13:43:00;;;;;;;28.25;18.52;;;;;;;4.33;77.64;99988.13;10078415;28;20049;-72
2020/12/05 13:47:56;;;;;;;33.03;21.98;;;;;;;4.31;76.99;99974.06;10104954;28;20492;-71
2020/12/05 13:52:52;;;;;;;30.50;20.13;;;;;;;4.26;77.12;99976.88;10094159;28;20047;-72
2020/12/05 13:57:50;;;;;;;32.13;20.02;;;;;;;4.15;77.56;99991.63;10081677;28;20113;-72
2020/12/05 14:02:46;;;;;;;33.70;20.20;;;;;;;4.08;77.59;99980.38;10064905;28;20102;-72
2020/12/05 14:07:42;;;;;;;32.45;19.33;;;;;;;4.08;78.16;100012.84;10093848;28;20046;-72
2020/12/05 14:12:38;;;;;;;31.67;19.80;;;;;;;4.09;78.35;100003.66;10088180;28;20043;-72
2020/12/05 14:17:34;;;;;;;30.27;18.77;;;;;;;4.08;77.96;100008.22;10096342;28;20050;-72
2020/12/05 14:22:30;;;;;;;30.75;19.75;;;;;;;4.09;78.54;100009.84;10100966;28;20051;-72
2020/12/05 14:27:26;;;;;;;30.92;18.27;;;;;;;4.08;78.35;100023.66;10096452;28;20057;-72
2020/12/05 14:32:22;;;;;;;30.05;19.88;;;;;;;4.07;77.71;100049.91;10099423;28;20599;-72
2020/12/05 14:37:18;;;;;;;31.50;18.88;;;;;;;4.08;77.63;100066.94;10100244;28;20067;-72
2020/12/05 14:42:15;;;;;;;27.13;18.00;;;;;;;4.03;77.92;100080.53;10100267;28;20537;-72
2020/12/05 14:47:11;;;;;;;27.73;18.42;;;;;;;4.08;77.47;100102.91;10100854;28;20046;-72
2020/12/05 14:52:07;;;;;;;26.38;16.65;;;;;;;4.04;77.78;100117.31;10103683;28;20055;-72
2020/12/05 14:57:03;;;;;;;28.25;17.05;;;;;;;4.10;77.89;100135.09;10109866;28;20132;-72
2020/12/05 15:01:59;;;;;;;26.02;17.27;;;;;;;4.08;77.99;100138.09;10092755;28;20152;-72
2020/12/05 15:06:55;;;;;;;28.15;16.75;;;;;;;4.15;78.04;100137.75;10105356;28;20068;-70
2020/12/05 15:11:51;;;;;;;23.92;16.98;;;;;;;4.12;78.23;100149.16;10094113;28;20059;-71
2020/12/05 15:16:47;;;;;;;28.20;16.50;;;;;;;4.12;77.88;100154.56;10077294;28;20434;-70
2020/12/05 15:21:44;;;;;;;28.25;17.40;;;;;;;4.18;78.29;100159.63;10086909;28;20113;-71
2020/12/05 15:26:40;;;;;;;28.88;18.40;;;;;;;4.25;78.13;100159.28;10094174;28;20052;-71
2020/12/05 15:31:36;;;;;;;30.55;18.85;;;;;;;4.21;78.36;100150.13;10101745;28;20069;-71
2020/12/05 15:36:33;;;;;;;31.45;17.33;;;;;;;4.25;78.31;100153.88;10098509;28;20058;-72
2020/12/05 15:41:29;;;;;;;30.42;19.23;;;;;;;4.28;78.59;100158.69;10097092;28;20051;-73
2020/12/05 15:46:26;;;;;;;31.17;19.10;;;;;;;4.28;78.97;100174.94;10075563;28;20054;-72
2020/12/05 15:51:22;;;;;;;30.35;19.45;;;;;;;4.32;78.81;100192.22;10089458;28;20050;-72
2020/12/05 15:56:18;;;;;;;27.40;17.83;;;;;;;4.32;79.25;100186.00;10097288;28;20049;-72
2020/12/05 16:01:16;;;;;;;31.80;18.65;;;;;;;4.32;78.94;100197.63;10090872;28;20043;-72
2020/12/05 16:06:17;;;;;;;32.65;19.85;;;;;;;4.31;79.10;100212.25;10082449;28;20834;-72
2020/12/05 16:11:15;;;;;;;31.40;19.38;;;;;;;4.17;79.47;100222.16;10093151;28;20046;-72
2020/12/05 16:16:17;;;;;;;27.88;18.63;;;;;;;4.12;79.23;100219.50;10075924;28;20165;-73
2020/12/05 16:21:13;;;;;;;29.33;18.52;;;;;;;4.06;79.39;100228.75;10084435;28;20078;-73
2020/12/05 16:26:11;;;;;;;30.38;19.25;;;;;;;4.00;80.21;100228.81;10088002;28;20120;-72
2020/12/05 16:31:07;;;;;;;33.67;21.92;;;;;;;4.02;79.69;100230.44;10099151;28;20430;-71
2020/12/05 16:36:09;;;;;;;29.20;18.77;;;;;;;4.06;80.13;100228.75;10094003;28;20047;-72
2020/12/05 16:41:10;;;;;;;32.35;18.88;;;;;;;3.96;79.29;100233.16;10103219;28;20050;-71
2020/12/05 16:46:07;;;;;;;31.17;19.35;;;;;;;3.97;79.57;100221.28;10102267;28;20039;-70
2020/12/05 16:51:03;;;;;;;32.88;19.92;;;;;;;3.95;80.27;100220.75;10101855;28;20121;-72
2020/12/05 16:55:59;;;;;;;30.10;18.55;;;;;;;3.95;79.64;100219.94;10101644;28;20710;-72
2020/12/05 17:00:55;;;;;;;27.02;17.73;;;;;;;3.84;79.74;100227.34;10094627;28;20109;-73
2020/12/05 17:05:52;;;;;;;28.67;18.35;;;;;;;3.78;78.98;100231.16;10100101;28;20623;-73
2020/12/05 17:10:48;;;;;;;28.58;17.13;;;;;;;3.72;78.85;100235.03;10104128;28;20531;-72
2020/12/05 17:15:44;;;;;;;25.95;16.50;;;;;;;3.72;78.87;100227.72;10101220;28;20054;-73
2020/12/05 17:20:40;;;;;;;29.48;18.90;;;;;;;3.67;79.14;100251.31;10074949;28;20053;-72
2020/12/05 17:25:36;;;;;;;29.80;19.75;;;;;;;3.77;79.77;100256.63;10090626;28;20054;-72
2020/12/05 17:30:32;;;;;;;29.00;19.38;;;;;;;3.81;79.35;100254.97;10086871;28;20376;-72
2020/12/05 17:35:28;;;;;;;29.17;19.27;;;;;;;3.83;79.46;100244.69;10089765;28;20046;-73
2020/12/05 17:40:24;;;;;;;30.65;19.73;;;;;;;3.78;79.71;100253.63;10089137;28;20732;-72
2020/12/05 17:45:20;;;;;;;28.02;18.27;;;;;;;3.82;79.93;100261.97;10092736;28;20519;-72
2020/12/05 17:50:16;;;;;;;28.98;18.48;;;;;;;3.79;79.99;100265.25;10097799;28;20506;-71
2020/12/05 17:55:12;;;;;;;28.30;17.85;;;;;;;3.68;79.70;100263.72;10094638;28;20097;-68
2020/12/05 18:00:08;;;;;;;30.63;19.35;;;;;;;3.66;80.40;100277.50;10094316;28;20062;-69
2020/12/05 18:05:05;;;;;;;27.10;18.25;;;;;;;3.65;80.54;100299.44;10095247;28;20043;-68
2020/12/05 18:10:06;;;;;;;31.73;18.48;;;;;;;3.49;80.46;100294.13;10091857;28;20046;-69
2020/12/05 18:15:04;;;;;;;28.05;18.52;;;;;;;3.48;81.63;100314.16;10092552;28;20497;-67
2020/12/05 18:20:00;;;;;;;28.02;18.83;;;;;;;3.61;80.74;100317.31;10085984;28;20050;-69
2020/12/05 18:24:56;;;;;;;27.60;17.52;;;;;;;3.66;80.53;100314.56;10085130;28;20137;-69
2020/12/05 18:29:52;;;;;;;29.60;17.25;;;;;;;3.58;80.65;100316.78;10069808;28;20042;-68
2020/12/05 18:34:49;;;;;;;27.90;18.25;;;;;;;3.64;80.71;100330.25;10099603;28;20093;-69
2020/12/05 18:39:45;;;;;;;27.35;18.63;;;;;;;3.61;80.29;100339.75;10084060;28;20855;-69
2020/12/05 18:44:41;;;;;;;30.25;19.60;;;;;;;3.52;79.92;100350.31;10086887;28;20356;-70
2020/12/05 18:49:37;;;;;;;30.88;19.70;;;;;;;3.46;80.63;100337.13;10081510;28;20562;-70
2020/12/05 18:54:34;;;;;;;30.65;19.42;;;;;;;3.44;80.83;100340.13;10086620;28;20053;-70
2020/12/05 18:59:30;;;;;;;28.45;16.85;;;;;;;3.41;80.82;100335.25;10075883;28;20058;-70
2020/12/05 19:04:27;;;;;;;31.40;18.58;;;;;;;3.41;80.76;100335.25;10088936;28;20106;-68
2020/12/05 19:09:23;;;;;;;25.40;17.20;;;;;;;3.51;80.17;100351.44;10079042;28;20051;-69
2020/12/05 19:14:19;;;;;;;25.52;15.70;;;;;;;3.45;80.50;100357.94;10095999;28;20153;-69
2020/12/05 19:19:15;;;;;;;28.92;18.63;;;;;;;3.50;80.61;100365.22;10068919;28;20559;-70
2020/12/05 19:24:11;;;;;;;25.02;17.85;;;;;;;3.55;79.89;100362.47;10086360;28;20042;-70
2020/12/05 19:29:07;;;;;;;28.80;16.90;;;;;;;3.49;80.15;100353.59;10074349;28;20074;-68
2020/12/05 19:34:04;;;;;;;24.40;15.48;;;;;;;3.46;80.38;100353.34;10083086;28;20049;-70
2020/12/05 19:39:00;;;;;;;26.30;16.65;;;;;;;3.47;79.89;100355.75;10081386;28;20133;-70
2020/12/05 19:43:56;;;;;;;24.27;15.32;;;;;;;3.49;79.90;100364.41;10092186;28;20688;-68
2020/12/05 19:48:52;;;;;;;26.23;16.48;;;;;;;3.49;80.20;100375.22;10092020;28;20131;-68
2020/12/05 19:53:48;;;;;;;24.77;16.00;;;;;;;3.47;79.99;100387.41;10092473;28;20045;-69
2020/12/05 19:58:44;;;;;;;23.55;15.02;;;;;;;3.35;80.88;100393.13;10085527;28;20051;-68
2020/12/05 20:03:41;;;;;;;23.83;14.45;;;;;;;3.48;80.39;100400.66;10085035;28;20709;-68
2020/12/05 20:08:37;;;;;;;23.20;13.27;;;;;;;3.52;80.05;100406.28;10070220;28;20050;-68
2020/12/05 20:13:33;;;;;;;25.73;16.75;;;;;;;3.34;79.83;100421.22;10086358;28;20046;-69
2020/12/05 20:18:30;;;;;;;26.90;16.40;;;;;;;3.40;80.46;100422.84;10085300;28;20057;-68
2020/12/05 20:23:26;;;;;;;25.55;16.30;;;;;;;3.36;80.94;100429.88;10090924;28;20050;-69
2020/12/05 20:28:22;;;;;;;25.02;16.40;;;;;;;3.39;80.38;100440.16;10057499;28;20406;-70
2020/12/05 20:33:18;;;;;;;27.23;15.98;;;;;;;3.34;80.91;100443.69;10091828;28;20046;-69
2020/12/05 20:38:14;;;;;;;24.67;15.52;;;;;;;3.35;80.69;100455.28;10081467;28;20050;-68
2020/12/05 20:43:13;;;;;;;24.73;16.67;;;;;;;3.28;80.47;100460.19;10090612;28;20697;-69
2020/12/05 20:48:18;;;;;;;24.38;16.45;;;;;;;3.38;80.09;100460.13;10066287;28;20050;-70
2020/12/05 20:53:14;;;;;;;23.98;15.05;;;;;;;3.31;79.77;100465.03;10092424;28;20042;-69
2020/12/05 20:58:13;;;;;;;23.63;14.85;;;;;;;3.31;79.95;100486.66;10083480;28;20058;-69
2020/12/05 21:03:09;;;;;;;23.48;14.95;;;;;;;3.32;79.93;100493.69;10087087;28;20046;-70
2020/12/05 21:08:05;;;;;;;25.27;16.23;;;;;;;3.25;80.24;100498.53;10090447;28;20054;-70
2020/12/05 21:13:01;;;;;;;23.23;16.17;;;;;;;3.39;80.05;100488.81;10117999;28;20049;-70
2020/12/05 21:17:57;;;;;;;21.83;14.40;;;;;;;3.40;79.67;100495.81;10112574;28;20074;-70
2020/12/05 21:22:55;;;;;;;25.13;15.85;;;;;;;3.43;79.80;100495.25;10111696;28;20872;-74
2020/12/05 21:27:51;;;;;;;25.23;15.55;;;;;;;3.45;78.69;100493.09;10104275;28;20042;-72
2020/12/05 21:32:47;;;;;;;24.02;15.13;;;;;;;3.43;79.07;100484.44;10129468;28;20054;-72
2020/12/05 21:37:45;;;;;;;30.80;17.23;;;;;;;3.40;78.87;100474.19;10114749;28;20564;-72
2020/12/05 21:42:41;;;;;;;25.42;16.67;;;;;;;3.37;79.07;100472.03;10136524;28;20756;-73
2020/12/05 21:47:37;;;;;;;26.85;16.20;;;;;;;3.33;79.51;100469.06;10121007;28;20057;-72
2020/12/05 21:52:33;;;;;;;24.75;16.00;;;;;;;3.32;79.34;100461.25;10131975;28;20057;-72
2020/12/05 21:57:30;;;;;;;27.30;16.63;;;;;;;3.32;78.84;100461.25;10138532;28;20537;-69
2020/12/05 22:02:26;;;;;;;23.35;16.33;;;;;;;3.26;78.84;100456.94;10142617;28;20046;-70
2020/12/05 22:07:25;;;;;;;26.02;16.48;;;;;;;3.27;78.95;100463.94;10143363;28;20058;-69
2020/12/05 22:12:22;;;;;;;26.45;16.77;;;;;;;3.21;79.26;100465.06;11462615;23;20559;-70
2020/12/05 22:17:18;;;;;;;26.33;15.95;;;;;;;3.20;79.13;100452.63;10146441;28;20580;-69
2020/12/05 22:22:14;;;;;;;29.23;16.23;;;;;;;3.12;78.83;100462.91;10107862;28;20051;-69
2020/12/05 22:27:10;;;;;;;26.05;17.33;;;;;;;3.17;78.63;100435.88;10095807;28;20046;-70
2020/12/05 22:32:06;;;;;;;27.33;17.33;;;;;;;3.16;78.57;100439.69;10090520;28;20045;-71
2020/12/05 22:37:02;;;;;;;29.02;16.40;;;;;;;3.22;79.27;100445.06;10091922;28;20503;-70
2020/12/05 22:41:58;;;;;;;28.77;16.52;;;;;;;3.17;78.57;100449.38;10106373;28;20046;-71
2020/12/05 22:46:54;;;;;;;27.80;16.58;;;;;;;3.14;78.42;100433.75;10091721;28;20509;-69
2020/12/05 22:51:50;;;;;;;31.88;18.45;;;;;;;3.25;78.63;100433.69;10093497;28;20090;-69